Time,TemperatureF,DewpointF,PressureIn,WindDirection,WindDirectionDegrees,WindSpeedMPH,WindSpeedGustMPH,Humidity,HourlyPrecipIn,Conditions,Clouds,dailyrainin,SolarRadiationWatts/m^2,SoftwareType,DateUTC
2013-03-13 00:11:00,66.0,-29.0,-100.00,SSE,167,16.0,49.0,0,0.00,,,0.00,0.000000,,2013-03-13 10:11:00,
2013-03-13 00:22:00,66.0,-29.0,-100.00,SSE,167,16.0,49.0,0,0.00,,,0.00,0.000000,,2013-03-13 10:22:00,
2013-03-13 00:32:00,66.0,-29.0,-100.00,SSE,167,16.0,49.0,0,0.00,,,0.00,0.000000,,2013-03-13 10:32:00,
2013-03-13 00:42:00,66.0,-29.0,-100.00,SSE,167,16.0,49.0,0,0.00,,,0.00,0.000000,,2013-03-13 10:42:00,
2013-03-13 00:52:00,66.0,-29.0,-100.00,North,351,15.0,124.0,0,0.00,,,0.00,0.000000,,2013-03-13 10:52:00,
2013-03-13 01:12:00,66.0,-29.0,-100.00,North,351,15.0,124.0,0,0.00,,,0.00,0.000000,,2013-03-13 11:12:00,
2013-03-13 01:22:00,66.0,-29.0,-100.00,North,351,15.0,124.0,0,0.00,,,0.00,0.000000,,2013-03-13 11:22:00,
2013-03-13 01:32:00,66.0,-29.0,-100.00,North,351,15.0,124.0,0,0.00,,,0.00,0.000000,,2013-03-13 11:32:00,
2013-03-13 01:42:00,66.0,-29.0,-100.00,North,351,15.0,124.0,0,0.00,,,0.00,0.000000,,2013-03-13 11:42:00,
2013-03-13 01:52:00,64.0,-31.0,-100.00,North,350,11.0,40.0,0,0.00,,,0.00,0.000000,,2013-03-13 11:52:00,
2013-03-13 02:12:00,64.0,-31.0,-100.00,North,350,11.0,40.0,0,0.00,,,0.00,0.000000,,2013-03-13 12:12:00,
2013-03-13 02:22:00,64.0,-31.0,-100.00,North,350,11.0,40.0,0,0.00,,,0.00,0.000000,,2013-03-13 12:22:00,
2013-03-13 02:32:00,64.0,-31.0,-100.00,North,350,11.0,40.0,0,0.00,,,0.00,0.000000,,2013-03-13 12:32:00,
2013-03-13 02:42:00,64.0,-31.0,-100.00,North,350,11.0,40.0,0,0.00,,,0.00,0.000000,,2013-03-13 12:42:00,
2013-03-13 02:52:00,65.0,-30.0,-100.00,East,84,13.0,35.0,0,0.00,,,-99.99,0.000000,,2013-03-13 12:52:00,
2013-03-13 03:22:00,65.0,-30.0,-100.00,East,84,13.0,35.0,0,0.00,,,-99.99,0.000000,,2013-03-13 13:22:00,
2013-03-13 03:32:00,65.0,-30.0,-100.00,East,84,13.0,35.0,0,0.00,,,-99.99,0.000000,,2013-03-13 13:32:00,
2013-03-13 03:42:00,65.0,-30.0,-100.00,East,84,13.0,35.0,0,0.00,,,-99.99,0.000000,,2013-03-13 13:42:00,
2013-03-13 03:52:00,65.0,-30.0,-100.00,SE,126,14.0,35.0,0,0.00,,,0.00,0.000000,,2013-03-13 13:52:00,
2013-03-13 04:12:00,65.0,-30.0,-100.00,SE,126,14.0,35.0,0,0.00,,,0.00,0.000000,,2013-03-13 14:12:00,
2013-03-13 04:21:00,65.0,-30.0,-100.00,SE,126,14.0,35.0,0,0.00,,,0.00,0.000000,,2013-03-13 14:21:00,
2013-03-13 04:33:00,65.0,-30.0,-100.00,SE,126,14.0,35.0,0,0.00,,,0.00,0.000000,,2013-03-13 14:33:00,
2013-03-13 04:42:00,65.0,-30.0,-100.00,SE,126,14.0,35.0,0,0.00,,,0.00,0.000000,,2013-03-13 14:42:00,
2013-03-13 05:12:00,63.0,-31.0,-100.00,WNW,292,11.0,42.0,0,0.00,,,0.00,0.000000,,2013-03-13 15:12:00,
2013-03-13 05:22:00,63.0,-31.0,-100.00,WNW,292,11.0,42.0,0,0.00,,,0.00,0.000000,,2013-03-13 15:22:00,
2013-03-13 05:32:00,63.0,-31.0,-100.00,WNW,292,11.0,42.0,0,0.00,,,0.00,0.000000,,2013-03-13 15:32:00,
2013-03-13 05:42:00,63.0,-31.0,-100.00,WNW,292,11.0,42.0,0,0.00,,,0.00,0.000000,,2013-03-13 15:42:00,
2013-03-13 05:51:00,63.0,-31.0,-100.00,WNW,292,11.0,42.0,0,0.00,,,0.00,0.000000,,2013-03-13 15:51:00,
2013-03-13 05:52:00,64.0,-31.0,-100.00,SE,138,7.0,32.0,0,0.00,,,0.00,0.000000,,2013-03-13 15:52:00,
2013-03-13 06:22:00,64.0,-31.0,-100.00,SE,138,7.0,32.0,0,0.00,,,0.00,0.000000,,2013-03-13 16:22:00,
2013-03-13 06:32:00,64.0,-31.0,-100.00,SE,138,7.0,32.0,0,0.00,,,0.00,0.000000,,2013-03-13 16:32:00,
2013-03-13 06:42:00,64.0,-31.0,-100.00,SE,138,7.0,32.0,0,0.00,,,0.00,0.000000,,2013-03-13 16:42:00,
2013-03-13 06:52:00,63.0,-31.0,-100.00,SSW,197,15.0,50.0,0,0.00,,,0.00,0.000000,,2013-03-13 16:52:00,
2013-03-13 07:12:00,63.0,-31.0,-100.00,SSW,197,15.0,50.0,0,0.00,,,0.00,0.000000,,2013-03-13 17:12:00,
2013-03-13 07:22:00,63.0,-31.0,-100.00,SSW,197,15.0,50.0,0,0.00,,,0.00,0.000000,,2013-03-13 17:22:00,
2013-03-13 07:32:00,63.0,-31.0,-100.00,SSW,197,15.0,50.0,0,0.00,,,0.00,0.000000,,2013-03-13 17:32:00,
2013-03-13 07:42:00,63.0,-31.0,-100.00,SSW,197,15.0,50.0,0,0.00,,,0.00,0.000000,,2013-03-13 17:42:00,
2013-03-13 08:22:00,63.0,-31.0,-100.00,NE,56,9.0,50.0,0,0.00,,,0.00,8.000000,,2013-03-13 18:22:00,
2013-03-13 08:33:00,63.0,-31.0,-100.00,NE,56,9.0,50.0,0,0.00,,,0.00,8.000000,,2013-03-13 18:33:00,
2013-03-13 08:42:00,63.0,-31.0,-100.00,NE,56,9.0,50.0,0,0.00,,,0.00,8.000000,,2013-03-13 18:42:00,
2013-03-13 08:51:00,63.0,-31.0,-100.00,NE,56,9.0,50.0,0,0.00,,,0.00,8.000000,,2013-03-13 18:51:00,
2013-03-13 08:52:00,69.0,-28.0,-100.00,North,351,13.0,48.0,0,0.00,,,0.00,180.000000,,2013-03-13 18:52:00,
2013-03-13 09:22:00,69.0,-28.0,-100.00,North,351,13.0,48.0,0,0.00,,,0.00,180.000000,,2013-03-13 19:22:00,
2013-03-13 09:32:00,69.0,-28.0,-100.00,North,351,13.0,48.0,0,0.00,,,0.00,180.000000,,2013-03-13 19:32:00,
2013-03-13 09:42:00,69.0,-28.0,-100.00,North,351,13.0,48.0,0,0.00,,,0.00,180.000000,,2013-03-13 19:42:00,
2013-03-13 09:52:00,71.0,-26.0,-100.00,WNW,283,16.0,33.0,0,0.00,,,0.00,501.000000,,2013-03-13 19:52:00,
2013-03-13 10:22:00,71.0,-26.0,-100.00,WNW,283,16.0,33.0,0,0.00,,,0.00,501.000000,,2013-03-13 20:22:00,
2013-03-13 10:32:00,71.0,-26.0,-100.00,WNW,283,16.0,33.0,0,0.00,,,0.00,501.000000,,2013-03-13 20:32:00,
2013-03-13 10:41:00,71.0,-26.0,-100.00,WNW,283,16.0,33.0,0,0.00,,,0.00,501.000000,,2013-03-13 20:41:00,
2013-03-13 11:12:00,73.0,-25.0,-100.00,NE,52,12.0,27.0,0,0.00,,,0.00,774.000000,,2013-03-13 21:12:00,
2013-03-13 11:22:00,73.0,-25.0,-100.00,NE,52,12.0,27.0,0,0.00,,,0.00,774.000000,,2013-03-13 21:22:00,
2013-03-13 11:32:00,73.0,-25.0,-100.00,NE,52,12.0,27.0,0,0.00,,,0.00,774.000000,,2013-03-13 21:32:00,
2013-03-13 11:41:00,73.0,-25.0,-100.00,NE,52,12.0,27.0,0,0.00,,,0.00,774.000000,,2013-03-13 21:41:00,
2013-03-13 11:51:00,73.0,-25.0,-100.00,NE,52,12.0,27.0,0,0.00,,,0.00,774.000000,,2013-03-13 21:51:00,
2013-03-13 11:52:00,74.0,-25.0,-100.00,NE,47,16.0,29.0,0,0.00,,,0.00,998.000000,,2013-03-13 21:52:00,
2013-03-13 12:22:00,74.0,-25.0,-100.00,NE,47,16.0,29.0,0,0.00,,,0.00,998.000000,,2013-03-13 22:22:00,
2013-03-13 12:32:00,74.0,-25.0,-100.00,NE,47,16.0,29.0,0,0.00,,,0.00,998.000000,,2013-03-13 22:32:00,
2013-03-13 12:42:00,74.0,-25.0,-100.00,NE,47,16.0,29.0,0,0.00,,,0.00,998.000000,,2013-03-13 22:42:00,
2013-03-13 12:52:00,76.0,-23.0,-100.00,NE,34,16.0,31.0,0,0.00,,,0.00,1140.000000,,2013-03-13 22:52:00,
2013-03-13 13:12:00,76.0,-23.0,-100.00,NE,34,16.0,31.0,0,0.00,,,0.00,1140.000000,,2013-03-13 23:12:00,
2013-03-13 13:22:00,76.0,-23.0,-100.00,NE,34,16.0,31.0,0,0.00,,,0.00,1140.000000,,2013-03-13 23:22:00,
2013-03-13 13:32:00,76.0,-23.0,-100.00,NE,34,16.0,31.0,0,0.00,,,0.00,1140.000000,,2013-03-13 23:32:00,
2013-03-13 13:42:00,76.0,-23.0,-100.00,NE,34,16.0,31.0,0,0.00,,,0.00,1140.000000,,2013-03-13 23:42:00,
2013-03-13 13:52:00,74.0,-25.0,-100.00,NNE,23,17.0,30.0,0,0.00,,,0.00,1170.000000,,2013-03-13 23:52:00,
2013-03-13 14:22:00,74.0,-25.0,-100.00,NNE,23,17.0,30.0,0,0.00,,,0.00,1170.000000,,2013-03-14 00:22:00,
2013-03-13 14:32:00,74.0,-25.0,-100.00,NNE,23,17.0,30.0,0,0.00,,,0.00,1170.000000,,2013-03-14 00:32:00,
2013-03-13 14:42:00,74.0,-25.0,-100.00,NNE,23,17.0,30.0,0,0.00,,,0.00,1170.000000,,2013-03-14 00:42:00,
2013-03-13 14:52:00,75.0,-24.0,-100.00,NNE,30,18.0,31.0,0,0.00,,,0.00,1121.000000,,2013-03-14 00:52:00,
2013-03-13 15:22:00,75.0,-24.0,-100.00,NNE,30,18.0,31.0,0,0.00,,,0.00,1121.000000,,2013-03-14 01:22:00,
2013-03-13 15:32:00,75.0,-24.0,-100.00,NNE,30,18.0,31.0,0,0.00,,,0.00,1121.000000,,2013-03-14 01:32:00,
2013-03-13 15:42:00,75.0,-24.0,-100.00,NNE,30,18.0,31.0,0,0.00,,,0.00,1121.000000,,2013-03-14 01:42:00,
2013-03-13 16:22:00,76.0,-23.0,-100.00,North,3,13.0,29.0,0,0.00,,,0.00,1056.000000,,2013-03-14 02:22:00,
2013-03-13 16:32:00,76.0,-23.0,-100.00,North,3,13.0,29.0,0,0.00,,,0.00,1056.000000,,2013-03-14 02:32:00,
2013-03-13 16:42:00,76.0,-23.0,-100.00,North,3,13.0,29.0,0,0.00,,,0.00,1056.000000,,2013-03-14 02:42:00,
2013-03-13 16:51:00,76.0,-23.0,-100.00,North,3,13.0,29.0,0,0.00,,,0.00,1056.000000,,2013-03-14 02:51:00,
2013-03-13 16:52:00,75.0,-24.0,-100.00,South,175,15.0,26.0,0,0.00,,,0.00,787.000000,,2013-03-14 02:52:00,
2013-03-13 17:12:00,75.0,-24.0,-100.00,South,175,15.0,26.0,0,0.00,,,0.00,787.000000,,2013-03-14 03:12:00,
2013-03-13 17:22:00,75.0,-24.0,-100.00,South,175,15.0,26.0,0,0.00,,,0.00,787.000000,,2013-03-14 03:22:00,
2013-03-13 17:32:00,75.0,-24.0,-100.00,South,175,15.0,26.0,0,0.00,,,0.00,787.000000,,2013-03-14 03:32:00,
2013-03-13 17:42:00,75.0,-24.0,-100.00,South,175,15.0,26.0,0,0.00,,,0.00,787.000000,,2013-03-14 03:42:00,
2013-03-13 17:52:00,72.0,-26.0,-100.00,NNE,30,14.0,28.0,0,0.00,,,0.00,553.000000,,2013-03-14 03:52:00,
2013-03-13 18:22:00,72.0,-26.0,-100.00,NNE,30,14.0,28.0,0,0.00,,,0.00,553.000000,,2013-03-14 04:22:00,
2013-03-13 18:32:00,72.0,-26.0,-100.00,NNE,30,14.0,28.0,0,0.00,,,0.00,553.000000,,2013-03-14 04:32:00,
2013-03-13 18:42:00,72.0,-26.0,-100.00,NNE,30,14.0,28.0,0,0.00,,,0.00,553.000000,,2013-03-14 04:42:00,
2013-03-13 18:52:00,69.0,-28.0,-100.00,NNE,20,12.0,28.0,0,0.00,,,0.00,199.000000,,2013-03-14 04:52:00,
2013-03-13 19:22:00,69.0,-28.0,-100.00,NNE,20,12.0,28.0,0,0.00,,,0.00,199.000000,,2013-03-14 05:22:00,
2013-03-13 19:33:00,69.0,-28.0,-100.00,NNE,20,12.0,28.0,0,0.00,,,0.00,199.000000,,2013-03-14 05:33:00,
2013-03-13 19:42:00,69.0,-28.0,-100.00,NNE,20,12.0,28.0,0,0.00,,,0.00,199.000000,,2013-03-14 05:42:00,
2013-03-13 19:52:00,68.0,-28.0,-100.00,NE,46,11.0,27.0,0,0.00,,,0.00,19.000000,,2013-03-14 05:52:00,
2013-03-13 20:12:00,68.0,-28.0,-100.00,NE,46,11.0,27.0,0,0.00,,,0.00,19.000000,,2013-03-14 06:12:00,
2013-03-13 20:22:00,68.0,-28.0,-100.00,NE,46,11.0,27.0,0,0.00,,,0.00,19.000000,,2013-03-14 06:22:00,
2013-03-13 20:32:00,68.0,-28.0,-100.00,NE,46,11.0,27.0,0,0.00,,,0.00,19.000000,,2013-03-14 06:32:00,
2013-03-13 20:42:00,68.0,-28.0,-100.00,NE,46,11.0,27.0,0,0.00,,,0.00,19.000000,,2013-03-14 06:42:00,
2013-03-13 20:52:00,67.0,-29.0,-100.00,WNW,288,10.0,48.0,0,0.00,,,0.00,0.000000,,2013-03-14 06:52:00,
2013-03-13 21:22:00,67.0,-29.0,-100.00,WNW,288,10.0,48.0,0,0.00,,,0.00,0.000000,,2013-03-14 07:22:00,
2013-03-13 21:32:00,67.0,-29.0,-100.00,WNW,288,10.0,48.0,0,0.00,,,0.00,0.000000,,2013-03-14 07:32:00,
2013-03-13 21:42:00,67.0,-29.0,-100.00,WNW,288,10.0,48.0,0,0.00,,,0.00,0.000000,,2013-03-14 07:42:00,
2013-03-13 22:21:00,67.0,-29.0,-100.00,WNW,300,10.0,33.0,0,0.00,,,0.00,0.000000,,2013-03-14 08:21:00,
2013-03-13 22:32:00,67.0,-29.0,-100.00,WNW,300,10.0,33.0,0,0.00,,,0.00,0.000000,,2013-03-14 08:32:00,
2013-03-13 22:41:00,67.0,-29.0,-100.00,WNW,300,10.0,33.0,0,0.00,,,0.00,0.000000,,2013-03-14 08:41:00,
2013-03-13 22:51:00,67.0,-29.0,-100.00,WNW,300,10.0,33.0,0,0.00,,,0.00,0.000000,,2013-03-14 08:51:00,
2013-03-13 23:22:00,64.0,-31.0,-100.00,ENE,64,4.0,33.0,0,0.00,,,0.00,0.000000,,2013-03-14 09:22:00,
2013-03-13 23:32:00,64.0,-31.0,-100.00,ENE,64,4.0,33.0,0,0.00,,,0.00,0.000000,,2013-03-14 09:32:00,
2013-03-13 23:42:00,64.0,-31.0,-100.00,ENE,64,4.0,33.0,0,0.00,,,0.00,0.000000,,2013-03-14 09:42:00,
2013-03-13 23:51:00,64.0,-31.0,-100.00,ENE,64,4.0,33.0,0,0.00,,,0.00,0.000000,,2013-03-14 09:51:00,
2013-03-13 23:52:00,65.0,-30.0,-100.00,West,261,5.0,28.0,0,0.00,,,0.00,0.000000,,2013-03-14 09:52:00,